createdAt,value
2022-09-14T00:29:49.849Z,0
2022-09-14T00:30:38.237Z,0
2022-09-14T00:31:27.142Z,0
2022-09-14T00:32:15.221Z,0
2022-09-14T00:32:56.532Z,0
2022-09-14T00:33:36.994Z,0
2022-09-14T00:34:17.471Z,0
2022-09-14T00:34:57.952Z,0
2022-09-14T00:35:38.458Z,0
2022-09-14T00:36:18.914Z,0
2022-09-14T00:36:59.440Z,0
2022-09-14T00:37:39.880Z,0
2022-09-14T00:38:20.373Z,0
2022-09-14T00:39:01.044Z,0
2022-09-14T00:39:41.374Z,0
2022-09-14T00:40:21.883Z,0
2022-09-14T00:47:46.961Z,0
2022-09-14T00:48:27.499Z,0
2022-09-14T00:49:07.941Z,0
2022-09-14T00:49:48.410Z,0
2022-09-14T00:50:28.871Z,0
2022-09-14T00:51:09.389Z,0
2022-09-14T00:51:49.829Z,0
2022-09-14T00:52:30.251Z,0
2022-09-14T00:53:10.731Z,0
2022-09-14T00:53:51.204Z,0
2022-09-14T00:54:31.706Z,0
2022-09-14T00:55:12.172Z,0
2022-09-14T01:01:57.155Z,0
2022-09-14T01:02:37.662Z,0
2022-09-14T01:03:18.031Z,0
2022-09-14T01:03:58.590Z,0
2022-09-14T01:04:39.066Z,0
2022-09-14T01:05:19.630Z,0
2022-09-14T01:06:00.084Z,0
2022-09-14T01:06:40.570Z,0
2022-09-14T01:07:21.088Z,0
2022-09-14T01:08:01.584Z,0
2022-09-14T01:08:42.055Z,0
2022-09-14T01:14:32.530Z,0
2022-09-14T01:15:13.090Z,0
2022-09-14T01:15:53.635Z,0
2022-09-14T01:16:34.158Z,0
2022-09-14T01:17:14.533Z,0
2022-09-14T01:17:55.047Z,0
2022-09-14T01:18:35.478Z,0
2022-09-14T01:19:16.012Z,0
2022-09-14T01:19:56.472Z,0
2022-09-14T01:20:36.943Z,0
2022-09-14T01:21:17.464Z,0
2022-09-14T01:28:02.216Z,0
2022-09-14T01:28:42.700Z,0
2022-09-14T01:29:23.187Z,0
2022-09-14T01:30:03.708Z,0
2022-09-14T01:30:44.185Z,0
2022-09-14T01:31:24.841Z,0
2022-09-14T01:32:05.134Z,0
2022-09-14T01:32:45.635Z,0
2022-09-14T01:33:26.144Z,0
2022-09-14T01:34:06.614Z,0
2022-09-14T01:34:47.035Z,0
2022-09-14T01:42:12.273Z,0
2022-09-14T01:42:52.753Z,0
2022-09-14T01:43:36.202Z,0
2022-09-14T01:44:13.741Z,0
2022-09-14T01:44:54.176Z,0
2022-09-14T01:45:34.836Z,0
2022-09-14T01:46:15.238Z,0
2022-09-14T01:46:55.755Z,0
2022-09-14T01:47:36.267Z,0
2022-09-14T01:48:16.785Z,0
2022-09-14T01:48:57.284Z,0
2022-09-14T01:55:42.192Z,0
2022-09-14T01:56:22.615Z,0
2022-09-14T01:57:03.081Z,0
2022-09-14T01:57:43.545Z,0
2022-09-14T01:58:24.023Z,0
2022-09-14T01:59:04.500Z,0
2022-09-14T02:02:18.718Z,0
2022-09-14T02:02:59.612Z,0
2022-09-14T02:03:40.654Z,0
2022-09-14T02:04:21.629Z,0
2022-09-14T02:05:02.584Z,0
2022-09-14T02:08:27.533Z,0
2022-09-14T02:09:08.464Z,0
2022-09-14T02:09:49.433Z,0
2022-09-14T02:10:30.430Z,0
2022-09-14T02:11:11.422Z,0
2022-09-14T02:11:52.421Z,0
2022-09-14T02:15:58.530Z,0
2022-09-14T02:16:39.505Z,0
2022-09-14T02:17:20.458Z,0
2022-09-14T02:18:01.614Z,0
2022-09-14T02:18:42.450Z,0
2022-09-14T02:22:48.277Z,0
2022-09-14T02:23:29.284Z,0
2022-09-14T02:24:10.238Z,0
2022-09-14T02:24:51.221Z,0
2022-09-14T02:25:32.217Z,0
2022-09-14T02:26:13.216Z,0
2022-09-14T02:29:38.232Z,0
2022-09-14T02:30:19.168Z,0
2022-09-14T02:31:00.254Z,0
2022-09-14T02:31:41.184Z,0
2022-09-14T02:32:22.112Z,0
2022-09-14T02:33:03.062Z,0
2022-09-14T02:36:28.204Z,0
2022-09-14T02:37:09.213Z,0
2022-09-14T02:37:50.202Z,0
2022-09-14T02:38:31.160Z,0
2022-09-14T02:39:12.189Z,0
2022-09-14T02:39:53.360Z,0
2022-09-14T02:43:18.376Z,0
2022-09-14T02:43:59.410Z,0
2022-09-14T02:44:40.371Z,0
2022-09-14T02:45:21.338Z,0
2022-09-14T02:46:02.283Z,0
2022-09-14T02:46:43.319Z,0
2022-09-14T02:50:08.152Z,0
2022-09-14T02:50:49.112Z,0
2022-09-14T02:51:30.119Z,0
2022-09-14T02:52:11.116Z,0
2022-09-14T02:52:52.087Z,0
2022-09-14T02:56:58.124Z,0
2022-09-14T02:57:39.121Z,0
2022-09-14T02:59:01.118Z,0
2022-09-14T02:59:42.083Z,0
2022-09-14T03:00:23.097Z,0
2022-09-14T03:03:48.099Z,0
2022-09-14T03:04:28.947Z,0
2022-09-14T03:05:09.899Z,0
2022-09-14T03:05:50.870Z,0
2022-09-14T03:06:31.851Z,0
2022-09-14T03:07:12.817Z,0
2022-09-14T03:10:37.952Z,0
2022-09-14T03:11:18.906Z,0
2022-09-14T03:11:59.916Z,0
2022-09-14T03:12:40.863Z,0
2022-09-14T03:13:21.819Z,0
2022-09-14T03:14:02.789Z,0
2022-09-14T03:17:27.711Z,0
2022-09-14T03:18:12.407Z,0
2022-09-14T03:18:49.798Z,0
2022-09-14T03:19:30.739Z,0
2022-09-14T03:20:11.618Z,0
2022-09-14T03:20:52.614Z,0
2022-09-14T03:24:17.656Z,0
2022-09-14T03:24:58.614Z,0
2022-09-14T03:25:39.600Z,0
2022-09-14T03:26:20.618Z,0
2022-09-14T03:27:01.550Z,0
2022-09-14T03:27:42.518Z,0
2022-09-14T03:31:48.489Z,0
2022-09-14T03:32:29.354Z,0
2022-09-14T03:33:10.359Z,0
2022-09-14T03:33:51.325Z,0
2022-09-14T03:34:32.335Z,0
2022-09-14T03:38:38.206Z,0
2022-09-14T03:39:19.182Z,0
2022-09-14T03:40:00.254Z,0
2022-09-14T03:40:41.133Z,0
2022-09-14T03:41:22.118Z,0
2022-09-14T03:42:03.066Z,0
2022-09-14T03:45:27.966Z,0
2022-09-14T03:46:08.926Z,0
2022-09-14T03:46:49.994Z,0
2022-09-14T03:47:30.886Z,0
2022-09-14T03:48:11.853Z,0
2022-09-14T03:48:52.817Z,0
2022-09-14T03:52:17.824Z,0
2022-09-14T03:52:58.829Z,0
2022-09-14T03:53:39.887Z,0
2022-09-14T03:54:20.881Z,0
2022-09-14T03:55:01.863Z,0
2022-09-14T03:55:42.875Z,0
2022-09-14T03:58:27.767Z,0
2022-09-14T03:59:08.699Z,0
2022-09-14T03:59:49.900Z,0
2022-09-14T04:00:30.857Z,0
2022-09-14T04:01:11.853Z,0
2022-09-14T04:01:52.910Z,0
2022-09-14T04:05:21.662Z,0
2022-09-14T04:05:58.718Z,0
2022-09-14T04:06:39.773Z,0
2022-09-14T04:07:20.659Z,0
2022-09-14T04:08:01.654Z,0
2022-09-14T04:08:42.640Z,0
2022-09-14T04:12:48.466Z,0
2022-09-14T04:13:29.425Z,0
2022-09-14T04:14:10.470Z,0
2022-09-14T04:14:51.417Z,0
2022-09-14T04:15:32.415Z,0
2022-09-14T04:19:38.533Z,0
2022-09-14T04:20:20.308Z,0
2022-09-14T04:21:04.590Z,0
2022-09-14T04:21:42.379Z,0
2022-09-14T04:27:24.865Z,0
2022-09-14T04:28:19.520Z,0
2022-09-14T04:28:45.789Z,0
2022-09-14T04:29:26.411Z,0
2022-09-14T04:30:06.899Z,0
2022-09-14T04:30:47.419Z,0
2022-09-14T04:31:27.949Z,0
2022-09-14T04:32:08.387Z,0
2022-09-14T04:32:48.842Z,0
2022-09-14T04:33:29.360Z,0
2022-09-14T04:34:09.861Z,0
2022-09-14T04:39:35.410Z,0
2022-09-14T04:40:15.928Z,0
2022-09-14T04:40:56.386Z,0
2022-09-14T04:41:36.851Z,0
2022-09-14T04:42:17.399Z,0
2022-09-14T04:42:58.869Z,0
2022-09-14T04:43:39.327Z,0
2022-09-14T04:44:19.802Z,0
2022-09-14T04:51:04.730Z,0
2022-09-14T04:51:45.224Z,0
2022-09-14T04:52:25.746Z,0
2022-09-14T04:53:06.221Z,0
2022-09-14T04:53:46.756Z,0
2022-09-14T04:54:27.224Z,0
2022-09-14T04:55:07.749Z,0
2022-09-14T04:55:48.265Z,0
2022-09-14T04:56:28.781Z,0
2022-09-14T04:57:09.254Z,0
2022-09-14T04:57:49.742Z,0
2022-09-14T05:04:34.590Z,0
2022-09-14T05:05:15.098Z,0
2022-09-14T05:05:55.628Z,0
2022-09-14T05:06:36.110Z,0
2022-09-14T05:07:16.685Z,0
2022-09-14T05:07:57.092Z,0
2022-09-14T05:08:37.560Z,0
2022-09-14T05:09:18.101Z,0
2022-09-14T05:09:58.666Z,0
2022-09-14T05:10:39.035Z,4
2022-09-14T05:11:19.767Z,4
2022-09-14T05:18:04.683Z,4
2022-09-14T05:18:45.191Z,8
2022-09-14T05:19:25.705Z,8
2022-09-14T05:20:06.170Z,8
2022-09-14T05:20:46.718Z,8
2022-09-14T05:21:29.885Z,8
2022-09-14T05:26:16.371Z,12
2022-09-14T05:29:32.056Z,8
2022-09-14T05:30:13.672Z,12
2022-09-14T05:30:54.838Z,12
2022-09-14T05:31:35.835Z,12
2022-09-14T05:32:16.769Z,8
2022-09-14T05:35:41.715Z,8
2022-09-14T05:36:22.627Z,8
2022-09-14T05:37:03.617Z,12
2022-09-14T05:37:44.591Z,12
2022-09-14T05:38:26.415Z,12
2022-09-14T05:40:31.989Z,12
2022-09-14T05:41:13.142Z,12
2022-09-14T05:41:54.378Z,12
2022-09-14T05:42:36.251Z,12
2022-09-14T05:43:17.135Z,12
2022-09-14T05:46:02.174Z,8
2022-09-14T05:46:43.170Z,12
2022-09-14T05:47:24.205Z,8
2022-09-14T05:48:05.256Z,8
2022-09-14T05:48:46.367Z,8
2022-09-14T05:51:32.816Z,12
2022-09-14T05:52:12.948Z,12
2022-09-14T05:52:53.905Z,12
2022-09-14T06:32:36.112Z,44
2022-09-14T06:35:50.080Z,84
2022-09-14T06:36:30.508Z,92
2022-09-14T06:37:11.047Z,108
2022-09-14T06:37:51.506Z,120
2022-09-14T06:38:31.985Z,124
2022-09-14T06:39:12.509Z,132
2022-09-14T06:42:47.322Z,128
2022-09-14T06:43:28.109Z,124
2022-09-14T06:44:09.234Z,116
2022-09-14T06:44:50.302Z,112
2022-09-14T06:45:31.330Z,108
2022-09-14T06:48:56.505Z,132
2022-09-14T06:49:37.665Z,132
2022-09-14T06:50:18.748Z,132
2022-09-14T06:50:59.758Z,128
2022-09-14T06:51:40.825Z,124
2022-09-14T06:55:02.571Z,108
2022-09-14T06:55:43.143Z,108
2022-09-14T06:56:23.684Z,104
2022-09-14T06:57:04.229Z,104
2022-09-14T06:57:46.219Z,120
2022-09-14T06:58:26.760Z,144
2022-09-14T06:59:07.259Z,156
2022-09-14T07:05:31.284Z,124
2022-09-14T07:06:11.547Z,132
2022-09-14T07:06:52.555Z,132
2022-09-14T07:09:13.912Z,172
2022-09-14T07:09:54.393Z,168
2022-09-14T07:10:34.931Z,180
2022-09-14T07:11:15.507Z,184
2022-09-14T07:11:56.024Z,176
2022-09-14T07:12:36.638Z,184
2022-09-14T07:14:49.798Z,188
2022-09-14T07:15:30.600Z,180
2022-09-14T07:16:10.869Z,188
2022-09-14T07:16:52.116Z,200
2022-09-14T07:17:34.092Z,212
2022-09-14T07:19:41.668Z,228
2022-09-14T07:20:22.277Z,232
2022-09-14T07:21:05.488Z,236
2022-09-14T07:21:43.750Z,244
2022-09-14T07:22:24.507Z,256
2022-09-14T07:25:09.625Z,288
2022-09-14T07:25:51.005Z,300
2022-09-14T07:26:31.761Z,308
2022-09-14T07:30:46.383Z,356
2022-09-14T07:31:26.975Z,360
2022-09-14T07:32:08.007Z,356
2022-09-14T07:32:48.585Z,352
2022-09-14T07:33:29.313Z,344
2022-09-14T07:35:50.834Z,360
2022-09-14T07:36:38.182Z,376
2022-09-14T07:37:26.640Z,392
2022-09-14T07:38:15.348Z,388
2022-09-14T07:39:04.400Z,380
2022-09-14T07:39:52.970Z,388
2022-09-14T07:40:42.129Z,384
2022-09-14T07:41:33.802Z,392
2022-09-14T07:42:23.144Z,392
2022-09-14T07:43:12.106Z,400
2022-09-14T07:44:02.273Z,404
2022-09-14T07:44:49.878Z,404
2022-09-14T07:45:38.650Z,380
2022-09-14T07:46:27.402Z,412
2022-09-14T07:47:16.480Z,428
2022-09-14T07:48:04.935Z,440
2022-09-14T07:48:53.244Z,444
2022-09-14T07:49:42.494Z,444
2022-09-14T07:50:31.241Z,456
2022-09-14T07:51:20.312Z,448
2022-09-14T07:52:12.559Z,460
2022-09-14T07:52:59.458Z,460
2022-09-14T07:53:48.074Z,492
2022-09-14T07:54:36.814Z,528
2022-09-14T07:55:25.387Z,544
2022-09-14T07:56:14.374Z,564
2022-09-14T07:57:56.307Z,612
2022-09-14T07:58:40.630Z,632
2022-09-14T07:59:35.885Z,656
2022-09-14T08:00:18.038Z,672
2022-09-14T08:01:06.584Z,680
2022-09-14T08:01:55.728Z,688
2022-09-14T08:03:32.232Z,688
2022-09-14T08:04:21.592Z,696
2022-09-14T08:05:10.888Z,728
2022-09-14T08:05:59.443Z,704
2022-09-14T08:06:48.120Z,752
2022-09-14T08:07:37.026Z,760
2022-09-14T08:08:25.353Z,756
2022-09-14T08:09:14.287Z,716
2022-09-14T08:10:51.998Z,688
2022-09-14T08:11:40.869Z,676
2022-09-14T08:12:29.298Z,692
2022-09-14T08:13:19.142Z,684
2022-09-14T08:14:08.558Z,728
2022-09-14T08:14:56.961Z,708
2022-09-14T08:15:46.243Z,676
2022-09-14T08:16:34.479Z,624
2022-09-14T08:18:12.624Z,512
2022-09-14T08:19:01.362Z,468
2022-09-14T08:19:50.674Z,468
2022-09-14T08:20:38.996Z,444
2022-09-14T08:21:27.358Z,436
2022-09-14T08:22:16.506Z,432
2022-09-14T08:23:04.861Z,424
2022-09-14T08:23:53.671Z,416
2022-09-14T08:24:42.622Z,404
2022-09-14T08:25:31.335Z,396
2022-09-14T08:26:19.773Z,380
2022-09-14T08:27:09.281Z,360
2022-09-14T08:27:57.171Z,324
2022-09-14T08:28:45.905Z,272
2022-09-14T08:29:34.586Z,236
2022-09-14T08:31:12.747Z,192
2022-09-14T08:32:01.623Z,192
2022-09-14T08:32:50.294Z,204
2022-09-14T08:33:38.825Z,220
2022-09-14T08:34:27.561Z,236
2022-09-14T08:35:16.538Z,256
2022-09-14T08:36:05.151Z,272
2022-09-14T08:36:53.881Z,284
2022-09-14T08:38:31.330Z,288
2022-09-14T08:39:19.927Z,280
2022-09-14T08:40:08.674Z,272
2022-09-14T08:40:57.262Z,268
2022-09-14T08:41:46.595Z,268
2022-09-14T08:42:34.962Z,264
2022-09-14T08:44:12.884Z,268
2022-09-14T08:45:05.069Z,268
2022-09-14T08:45:50.552Z,276
2022-09-14T08:46:38.985Z,280
2022-09-14T08:47:28.060Z,292
2022-09-14T08:48:19.636Z,296
2022-09-14T08:49:08.649Z,300
2022-09-14T08:49:58.187Z,312
2022-09-14T08:50:46.261Z,328
2022-09-14T08:51:34.924Z,368
2022-09-14T08:52:24.138Z,404
2022-09-14T08:53:12.710Z,420
2022-09-14T08:54:01.358Z,432
2022-09-14T08:54:49.811Z,444
2022-09-14T08:55:38.637Z,456
2022-09-14T08:56:27.273Z,452
2022-09-14T08:57:16.018Z,440
2022-09-14T08:58:05.035Z,420
2022-09-14T08:58:53.544Z,400
2022-09-14T08:59:42.633Z,396
2022-09-14T09:00:30.932Z,392
2022-09-14T09:01:19.619Z,380
2022-09-14T09:02:08.254Z,392
2022-09-14T09:02:57.225Z,372
2022-09-14T09:03:45.641Z,360
2022-09-14T09:04:34.326Z,356
2022-09-14T09:06:15.723Z,312
2022-09-14T09:07:01.145Z,308
2022-09-14T09:07:49.632Z,316
2022-09-14T09:08:38.443Z,320
2022-09-14T09:09:27.191Z,332
2022-09-14T09:10:15.676Z,328
2022-09-14T09:11:04.789Z,332
2022-09-14T09:11:53.101Z,328
2022-09-14T09:20:31.183Z,268
2022-09-14T09:21:11.631Z,268
2022-09-14T09:21:52.132Z,260
2022-09-14T09:22:32.703Z,256
2022-09-14T09:23:13.243Z,252
2022-09-14T09:23:53.741Z,260
2022-09-14T09:24:37.195Z,260
2022-09-14T09:25:14.899Z,256
2022-09-14T09:25:55.376Z,252
2022-09-14T09:26:35.920Z,252
2022-09-14T09:31:22.828Z,236
2022-09-14T09:32:03.673Z,236
2022-09-14T09:32:44.141Z,236
2022-09-14T09:33:24.789Z,232
2022-09-14T09:34:05.254Z,236
2022-09-14T09:34:46.138Z,252
2022-09-14T09:40:51.083Z,316
2022-09-14T09:41:31.635Z,320
2022-09-14T09:42:12.153Z,316
2022-09-14T09:42:52.787Z,316
2022-09-14T09:43:48.722Z,312
2022-09-14T09:44:13.847Z,308
2022-09-14T09:44:56.973Z,304
2022-09-14T09:45:35.282Z,300
2022-09-14T09:52:20.836Z,348
2022-09-14T09:53:06.105Z,356
2022-09-14T09:53:41.854Z,384
2022-09-14T09:54:22.341Z,404
2022-09-14T09:55:02.863Z,416
2022-09-14T09:55:43.411Z,444
2022-09-14T09:56:24.025Z,472
2022-09-14T09:57:04.601Z,500
2022-09-14T09:57:45.216Z,528
2022-09-14T10:00:59.739Z,576
2022-09-14T10:01:42.311Z,552
2022-09-14T10:02:24.672Z,508
2022-09-14T10:03:06.390Z,472
2022-09-14T10:05:09.713Z,404
2022-09-14T10:05:50.800Z,420
2022-09-14T10:07:12.937Z,444
2022-09-14T10:07:54.105Z,460
2022-09-14T10:11:19.785Z,520
2022-09-14T10:12:00.844Z,504
2022-09-14T10:12:41.857Z,516
2022-09-14T10:13:22.910Z,520
2022-09-14T10:16:09.861Z,656
2022-09-14T10:16:51.440Z,688
2022-09-14T10:20:23.264Z,804
2022-09-14T10:25:07.445Z,640
2022-09-14T10:30:25.183Z,360
2022-09-14T10:31:05.734Z,376
2022-09-14T10:31:46.243Z,384
2022-09-14T10:32:26.793Z,396
2022-09-14T10:33:07.415Z,416
2022-09-14T10:33:47.966Z,428
2022-09-14T10:34:28.555Z,456
2022-09-14T10:35:09.246Z,456
2022-09-14T10:35:49.840Z,460
2022-09-14T10:41:54.973Z,488
2022-09-14T10:42:35.655Z,464
2022-09-14T10:43:16.202Z,444
2022-09-14T10:43:56.802Z,404
2022-09-14T10:44:37.327Z,348
2022-09-14T10:45:18.019Z,300
2022-09-14T10:45:58.627Z,284
2022-09-14T10:46:39.103Z,260
2022-09-14T10:53:21.088Z,320
2022-09-14T10:54:01.950Z,328
2022-09-14T10:54:43.502Z,316
2022-09-14T10:55:24.016Z,328
2022-09-14T10:56:04.588Z,364
2022-09-14T10:56:45.952Z,352
2022-09-14T10:58:51.156Z,264
2022-09-14T11:02:06.368Z,336
2022-09-14T11:02:46.659Z,368
2022-09-14T11:03:27.493Z,388
2022-09-14T11:04:31.225Z,424
2022-09-14T11:05:14.433Z,476
2022-09-14T11:06:37.094Z,440
2022-09-14T11:07:22.512Z,456
2022-09-14T11:10:06.040Z,628
2022-09-14T11:10:46.485Z,620
2022-09-14T11:11:27.093Z,580
2022-09-14T11:12:07.658Z,620
2022-09-14T11:12:48.332Z,600
2022-09-14T11:13:28.886Z,556
2022-09-14T11:14:09.696Z,560
2022-09-14T11:14:50.191Z,564
2022-09-14T11:15:30.841Z,564
2022-09-14T11:21:36.287Z,1144
2022-09-14T11:22:17.065Z,1196
2022-09-14T11:22:57.611Z,1168
2022-09-14T11:23:38.168Z,1136
2022-09-14T11:24:18.695Z,1176
2022-09-14T11:24:59.266Z,1060
2022-09-14T11:25:39.907Z,1024
2022-09-14T11:26:29.783Z,1020
2022-09-14T11:27:10.146Z,1032
2022-09-14T11:27:50.968Z,972
2022-09-14T11:32:35.904Z,964
2022-09-14T11:33:16.221Z,920
2022-09-14T11:33:56.761Z,816
2022-09-14T11:34:37.247Z,800
2022-09-14T11:35:17.840Z,808
2022-09-14T11:35:58.364Z,816
2022-09-14T11:36:38.894Z,800
2022-09-14T11:37:19.389Z,740
2022-09-14T11:37:59.860Z,680
2022-09-14T11:38:40.482Z,652
2022-09-14T11:44:45.499Z,724
2022-09-14T11:45:26.017Z,708
2022-09-14T11:46:06.642Z,728
2022-09-14T11:46:47.076Z,756
2022-09-14T11:47:27.499Z,800
2022-09-14T11:48:25.666Z,876
2022-09-14T11:48:48.766Z,888
2022-09-14T11:49:29.308Z,920
2022-09-14T11:50:09.853Z,924
2022-09-14T11:50:50.434Z,932
2022-09-14T12:32:53.036Z,396
2022-09-14T12:33:33.482Z,408
2022-09-14T12:34:13.906Z,416
2022-09-14T12:34:54.425Z,412
2022-09-14T12:35:35.113Z,388
2022-09-14T12:36:15.497Z,368
2022-09-14T12:36:55.994Z,356
2022-09-14T12:37:36.528Z,348
2022-09-14T12:38:17.079Z,344
2022-09-14T12:44:22.024Z,540
2022-09-14T12:45:02.556Z,576
2022-09-14T12:45:43.121Z,584
2022-09-14T12:46:24.617Z,588
2022-09-14T12:49:39.262Z,692
2022-09-14T12:50:19.886Z,676
2022-09-14T12:51:00.381Z,680
2022-09-14T12:51:41.008Z,660
2022-09-14T12:52:21.477Z,620
2022-09-14T12:53:02.002Z,620
2022-09-14T12:53:42.502Z,652
2022-09-14T12:54:23.023Z,692
2022-09-14T12:55:03.535Z,708
2022-09-14T13:00:28.186Z,916
2022-09-14T13:01:08.766Z,908
2022-09-14T13:01:49.494Z,860
2022-09-14T13:02:29.855Z,816
2022-09-14T13:03:10.318Z,848
2022-09-14T13:03:50.851Z,840
2022-09-14T13:04:31.375Z,832
2022-09-14T13:05:11.869Z,860
2022-09-14T13:05:52.401Z,864
2022-09-14T13:06:32.957Z,888
2022-09-14T13:11:18.522Z,1120
2022-09-14T13:11:59.047Z,1140
2022-09-14T13:12:39.675Z,1140
2022-09-14T13:13:20.204Z,1120
2022-09-14T13:14:00.909Z,1108
2022-09-14T13:14:41.392Z,1112
2022-09-14T13:15:22.069Z,980
2022-09-14T13:16:02.679Z,848
2022-09-14T13:16:43.230Z,836
2022-09-14T13:22:48.486Z,892
2022-09-14T13:23:28.987Z,828
2022-09-14T13:24:09.507Z,804
2022-09-14T13:24:50.094Z,796
2022-09-14T13:25:30.565Z,792
2022-09-14T13:26:11.156Z,840
2022-09-14T13:26:51.613Z,884
2022-09-14T13:27:32.298Z,888
2022-09-14T13:28:12.791Z,888
2022-09-14T13:31:26.644Z,788
2022-09-14T13:32:07.847Z,672
2022-09-14T13:32:48.390Z,564
2022-09-14T13:33:28.920Z,508
2022-09-14T13:34:09.428Z,480
2022-09-14T13:34:49.936Z,436
2022-09-14T13:35:30.447Z,412
2022-09-14T13:36:11.536Z,408
2022-09-14T13:39:47.410Z,320
2022-09-14T13:40:27.845Z,320
2022-09-14T13:41:08.321Z,316
2022-09-14T13:41:48.834Z,320
2022-09-14T13:42:29.287Z,324
2022-09-14T13:43:10.056Z,332
2022-09-14T13:43:50.670Z,344
2022-09-14T13:47:31.183Z,344
2022-09-14T13:48:11.740Z,336
2022-09-14T13:48:52.274Z,352
2022-09-14T13:49:32.792Z,376
2022-09-14T13:50:13.304Z,384
2022-09-14T13:50:53.832Z,372
2022-09-14T13:51:34.407Z,364
2022-09-14T13:52:14.979Z,340
2022-09-14T13:53:04.007Z,320
2022-09-14T13:53:36.130Z,296
2022-09-14T14:00:21.525Z,112
2022-09-14T14:01:02.162Z,108
2022-09-14T14:01:42.770Z,124
2022-09-14T14:02:23.236Z,140
2022-09-14T14:03:03.737Z,156
2022-09-14T14:03:44.103Z,164
2022-09-14T14:04:24.619Z,168
2022-09-14T14:05:05.907Z,148
2022-09-14T14:08:19.729Z,196
2022-09-14T14:09:00.283Z,260
2022-09-14T14:09:40.809Z,324
2022-09-14T14:10:21.587Z,364
2022-09-14T14:11:02.247Z,408
2022-09-14T14:11:42.642Z,408
2022-09-14T14:12:24.146Z,388
2022-09-14T14:13:04.891Z,356
2022-09-14T14:17:49.797Z,192
2022-09-14T14:18:30.335Z,172
2022-09-14T14:19:10.876Z,184
2022-09-14T14:19:51.437Z,220
2022-09-14T14:22:51.366Z,524
2022-09-14T14:26:54.687Z,592
2022-09-14T14:27:35.127Z,492
2022-09-14T14:28:15.668Z,472
2022-09-14T14:28:56.182Z,388
2022-09-14T14:29:36.660Z,352
2022-09-14T14:30:17.196Z,352
2022-09-14T14:30:57.775Z,328
2022-09-14T14:31:38.395Z,336
2022-09-14T14:32:18.936Z,344
2022-09-14T14:33:01.129Z,340
2022-09-14T14:38:25.062Z,328
2022-09-14T14:39:05.594Z,324
2022-09-14T14:39:49.487Z,328
2022-09-14T14:40:26.620Z,324
2022-09-14T14:41:07.200Z,320
2022-09-14T14:41:47.772Z,316
2022-09-14T14:42:28.269Z,316
2022-09-14T14:43:08.720Z,316
2022-09-14T14:43:49.291Z,312
2022-09-14T14:51:14.800Z,460
2022-09-14T14:51:55.452Z,472
2022-09-14T14:52:36.097Z,488
2022-09-14T14:53:16.601Z,476
2022-09-14T14:53:57.143Z,464
2022-09-14T14:54:37.667Z,476
2022-09-14T14:55:18.142Z,448
2022-09-14T14:55:58.642Z,428
2022-09-14T14:56:39.130Z,440
2022-09-14T15:04:04.953Z,536
2022-09-14T15:04:45.404Z,528
2022-09-14T15:05:25.873Z,512
2022-09-14T15:06:06.401Z,496
2022-09-14T15:06:46.877Z,496
2022-09-14T15:07:27.422Z,484
2022-09-14T15:08:07.954Z,448
2022-09-14T15:08:48.463Z,452
2022-09-14T15:09:29.036Z,468
2022-09-14T15:10:09.531Z,496
2022-09-14T15:16:54.994Z,516
2022-09-14T15:17:35.458Z,524
2022-09-14T15:18:16.044Z,524
2022-09-14T15:18:56.555Z,504
2022-09-14T15:19:37.000Z,472
2022-09-14T15:20:17.502Z,440
2022-09-14T15:20:58.035Z,388
2022-09-14T15:21:38.578Z,348
2022-09-14T15:22:19.115Z,308
2022-09-14T15:22:59.587Z,276
2022-09-14T15:29:04.698Z,208
2022-09-14T15:29:45.260Z,208
2022-09-14T15:30:25.736Z,204
2022-09-14T15:31:07.921Z,212
2022-09-14T15:31:46.875Z,212
2022-09-14T15:32:27.262Z,216
2022-09-14T15:33:07.974Z,224
2022-09-14T15:33:49.029Z,228
2022-09-14T15:34:29.527Z,228
2022-09-14T15:41:14.944Z,220
2022-09-14T15:41:55.488Z,220
2022-09-14T15:42:35.975Z,212
2022-09-14T15:43:16.509Z,208
2022-09-14T15:43:57.330Z,204
2022-09-14T15:44:37.753Z,196
2022-09-14T15:45:18.261Z,184
2022-09-14T15:45:58.780Z,184
2022-09-14T15:46:39.396Z,184
2022-09-14T15:47:19.898Z,184
2022-09-14T15:54:04.948Z,148
2022-09-14T15:54:45.465Z,144
2022-09-14T15:55:25.969Z,136
2022-09-14T15:56:06.592Z,132
2022-09-14T15:56:47.104Z,124
2022-09-14T15:57:27.606Z,124
2022-09-14T15:58:08.138Z,128
2022-09-14T15:58:48.668Z,128
2022-09-14T15:59:29.121Z,132
2022-09-14T16:00:09.683Z,124
2022-09-14T16:06:14.660Z,120
2022-09-14T16:06:55.049Z,120
2022-09-14T16:07:35.537Z,120
2022-09-14T16:08:16.057Z,120
2022-09-14T16:08:56.603Z,116
2022-09-14T16:09:37.145Z,116
2022-09-14T16:10:17.621Z,116
2022-09-14T16:10:58.075Z,116
2022-09-14T16:11:38.650Z,116
2022-09-14T16:12:19.166Z,108
2022-09-14T16:12:59.826Z,108
2022-09-14T16:17:44.950Z,92
2022-09-14T16:18:25.490Z,92
2022-09-14T16:19:06.049Z,96
2022-09-14T16:19:46.881Z,88
2022-09-14T16:20:27.601Z,92
2022-09-14T16:21:08.043Z,88
2022-09-14T16:21:53.003Z,92
2022-09-14T16:22:29.005Z,88
2022-09-14T16:23:09.515Z,92
2022-09-14T16:30:35.783Z,128
2022-09-14T16:31:15.583Z,128
2022-09-14T16:31:56.124Z,136
2022-09-14T16:32:36.599Z,136
2022-09-14T16:33:17.064Z,144
2022-09-14T16:33:57.553Z,148
2022-09-14T16:34:38.075Z,140
2022-09-14T16:35:18.508Z,136
2022-09-14T16:35:59.057Z,132
2022-09-14T16:36:39.552Z,144
2022-09-14T16:43:24.702Z,120
2022-09-14T16:44:05.152Z,128
2022-09-14T16:44:45.705Z,124
2022-09-14T16:45:26.212Z,120
2022-09-14T16:46:06.866Z,116
2022-09-14T16:46:47.317Z,112
2022-09-14T16:47:27.804Z,104
2022-09-14T16:48:08.763Z,108
2022-09-14T16:48:49.364Z,100
2022-09-14T16:49:29.774Z,96
2022-09-14T16:56:14.839Z,84
2022-09-14T16:56:55.304Z,84
2022-09-14T16:57:35.800Z,88
2022-09-14T16:58:16.315Z,92
2022-09-14T16:58:56.813Z,88
2022-09-14T16:59:37.320Z,88
2022-09-14T17:00:17.805Z,96
2022-09-14T17:00:58.353Z,92
2022-09-14T17:01:39.063Z,96
2022-09-14T17:02:19.378Z,92
2022-09-14T17:02:59.844Z,92
2022-09-14T17:09:44.883Z,56
2022-09-14T17:10:25.453Z,48
2022-09-14T17:11:05.974Z,48
2022-09-14T17:11:46.548Z,44
2022-09-14T17:12:27.035Z,44
2022-09-14T17:13:07.620Z,40
2022-09-14T17:13:48.096Z,40
2022-09-14T17:14:28.601Z,40
2022-09-14T17:15:09.102Z,36
2022-09-14T17:15:49.665Z,40
2022-09-14T17:23:15.079Z,44
2022-09-14T17:23:55.602Z,36
2022-09-14T17:24:36.163Z,36
2022-09-14T17:25:17.060Z,32
2022-09-14T17:25:57.384Z,32
2022-09-14T17:26:37.952Z,28
2022-09-14T17:27:18.360Z,24
2022-09-14T17:27:58.819Z,28
2022-09-14T17:28:39.447Z,28
2022-09-14T17:29:19.976Z,24
2022-09-14T17:35:24.851Z,16
2022-09-14T17:36:05.327Z,16
2022-09-14T17:36:45.771Z,16
2022-09-14T17:37:26.790Z,16
2022-09-14T17:38:06.807Z,12
2022-09-14T17:38:47.354Z,12
2022-09-14T17:39:27.824Z,12
2022-09-14T17:40:08.357Z,16
2022-09-14T17:40:48.787Z,12
2022-09-14T17:41:29.478Z,12
2022-09-14T17:42:09.853Z,12
2022-09-14T17:47:35.297Z,12
2022-09-14T17:48:16.147Z,8
2022-09-14T17:48:56.527Z,8
2022-09-14T17:49:36.988Z,8
2022-09-14T17:50:17.501Z,8
2022-09-14T17:50:58.025Z,4
2022-09-14T17:51:38.523Z,4
2022-09-14T17:52:18.980Z,8
2022-09-14T17:52:59.633Z,4
2022-09-14T18:35:02.866Z,0
2022-09-14T18:35:42.571Z,0
2022-09-14T18:36:22.955Z,0
2022-09-14T18:37:03.453Z,0
2022-09-14T18:37:43.928Z,0
2022-09-14T18:38:24.398Z,0
2022-09-14T18:39:04.914Z,0
2022-09-14T18:39:45.577Z,0
2022-09-14T18:40:26.034Z,0
2022-09-14T18:41:06.430Z,0
2022-09-14T18:47:51.756Z,0
2022-09-14T18:48:32.215Z,0
2022-09-14T18:49:12.741Z,0
2022-09-14T18:49:53.248Z,0
2022-09-14T18:50:33.785Z,0
2022-09-14T18:51:14.382Z,0
2022-09-14T18:51:54.869Z,0
2022-09-14T18:52:35.401Z,0
2022-09-14T18:53:15.867Z,0
2022-09-14T18:53:56.456Z,0
2022-09-14T19:00:42.361Z,0
2022-09-14T19:01:22.311Z,0
2022-09-14T19:02:02.767Z,0
2022-09-14T19:02:43.223Z,0
2022-09-14T19:03:23.796Z,0
2022-09-14T19:04:04.244Z,0
2022-09-14T19:04:44.733Z,0
2022-09-14T19:05:25.222Z,0
2022-09-14T19:06:05.833Z,0
2022-09-14T19:06:46.236Z,0
2022-09-14T19:07:26.654Z,0
2022-09-14T19:13:31.574Z,0
2022-09-14T19:14:12.213Z,0
2022-09-14T19:14:52.720Z,0
2022-09-14T19:15:33.277Z,0
2022-09-14T19:16:13.829Z,0
2022-09-14T19:19:27.663Z,0